東京国際空港の過去48時間の天気

東京国際空港 (Tokyo/Intl)

現在時刻: 5/28 12:26 JST (5/28 03:26 UTC) 以下の時間は現地時間です。

過去48時間のMETAR気象情報
時間 風向 風速(m/s) 視程 気温(℃) 湿度(%) 気圧(hPa) 天気現象
28 12:00 東南東 4 10km以上 23 69 1007
28 11:30 東南東 4 10km以上 22 69 1007
28 11:00 4 10km以上 22 69 1007
28 10:30 3 10km以上 21 69 1007
28 10:00 4 10km以上 21 69 1007
28 09:30 4 10km以上 21 73 1007
28 09:00 4 10km以上 20 78 1007
28 08:30 5 10km以上 20 73 1007
28 08:00 5 10km以上 20 73 1007
28 07:30 5 10km以上 20 73 1007
28 07:00 北東 5 10km以上 20 78 1007
28 06:30 東北東 5 10km以上 20 78 1006
28 06:00 5 10km以上 20 83 1006
28 05:30 6 10km以上 20 78 1006
28 05:00 東北東 5 10km以上 20 83 1006
28 04:30 北東 4 10km以上 20 78 1006
28 04:00 東北東 5 10km以上 20 78 1005
28 03:30 北東 4 10km以上 20 78 1005
28 03:00 北北東 4 10km以上 20 78 1005
28 02:30 5 10km以上 20 78 1005
28 02:00 北北東 5 10km以上 20 78 1004
28 01:30 5 10km以上 20 78 1004
28 01:00 北北東 5 10km以上 21 73 1004
28 00:30 6 10km以上 21 78 1004
28 00:00 北北東 7 10km以上 21 83 1004
27 23:30 5 10km以上 21 83 1004
27 23:00 北北東 5 10km以上 21 83 1004
27 22:30 北北東 5 10km以上 21 88 1003
27 22:00 東北東 5 10km以上 22 83 1003
27 21:30 5 10km以上 22 83 1003
27 21:00 東北東 2 10km以上 22 88 1003
27 20:30 4 10km以上 22 78 1002
27 20:00 4 10km以上 22 78 1001
27 19:30 5 10km以上 23 73 1001
27 19:00 5 10km以上 22 78 1001
27 18:30 5 10km以上 23 73 1001
27 18:00 南東 5 10km以上 23 73 1000
27 17:30 南東 4 10km以上 23 83 1000
27 17:00 東南東 4 10km以上 24 74 1000
27 16:30 東南東 4 10km以上 24 74 1000
27 16:00 南東 4 10km以上 24 74 1000
27 15:30 東南東 3 10km以上 24 69 1000
27 15:00 東南東 3 10km以上 24 74 1001
27 14:30 東北東 2 10km以上 24 74 1001
27 14:00 東北東 3 10km以上 24 74 1001
27 13:30 東北東 3 10km以上 23 78 1002
27 13:00 東北東 4 10km以上 23 78 1002
27 12:30 北東 4 10km以上 23 78 1002
27 12:00 東北東 4 10km以上 22 83 1002
27 11:30 4 10km以上 22 83 1003
27 11:00 4 10km以上 22 83 1003
27 10:30 東北東 3 10km以上 21 83 1003
27 10:00 北東 3 10km以上 21 83 1004
27 09:30 北北東 4 10km以上 21 83 1004
27 09:00 北北東 4 10km以上 21 78 1004
27 08:30 北北東 4 10km以上 20 88 1004
27 08:00 5 10km以上 20 88 1004
27 07:30 4 8000m 20 94 1004
27 07:00 5 8000m 20 94 1004
27 06:30 北北西 3 7000m 20 88 1004
27 06:00 北西 3 10km以上 20 88 1003
27 05:30 西北西 3 9000m 20 94 1003
27 05:00 北北西 2 8000m 20 94 1003
27 04:30 北北東 2 6000m 20 88 1003
27 04:00 2 6000m 20 94 1003
27 03:30 2 5000m 20 94 1003 もや
27 03:00 2 5000m 20 94 1003 もや
27 02:30 2 4500m 20 94 1003 もや
27 02:00 静穏 0 4500m 20 100 1004 もや
27 01:30 東南東 1 4500m 20 100 1004 もや
27 01:00 南東 2 6000m 20 100 1004
27 00:30 東南東 1 6000m 20 100 1005 弱いしゅう雨
27 00:00 2 6000m 20 100 1005
26 23:30 1 7000m 21 94 1005
26 23:00 不定 1 9000m 20 100 1006
26 22:30 南南東 2 10km以上 21 94 1006 弱いしゅう雨
26 22:00 2 10km以上 21 94 1006 弱いしゅう雨
26 21:30 3 10km以上 21 94 1007 弱いしゅう雨
26 21:00 4 10km以上 21 88 1007 弱いしゅう雨
26 20:30 3 10km以上 21 88 1006 弱いしゅう雨
26 20:00 4 10km以上 21 88 1006 弱いしゅう雨
26 19:30 5 10km以上 21 88 1006 弱いしゅう雨
26 19:00 4 10km以上 21 94 1006 弱いしゅう雨
26 18:30 4 10km以上 21 94 1006 弱い雨
26 18:00 3 10km以上 21 94 1006 弱い雨
26 17:30 不定 2 10km以上 21 94 1006 弱い雨
26 17:00 3 10km以上 21 88 1006 弱い雨
26 16:30 南東 2 10km以上 21 94 1006 弱い雨
26 16:00 3 10km以上 21 94 1006 弱い雨
26 15:30 3 10km以上 21 94 1006 弱い雨
26 15:00 4 10km以上 21 94 1007 弱い雨
26 14:30 3 10km以上 22 88 1007 弱い雨
26 14:00 4 10km以上 22 88 1007
26 13:30 5 10km以上 22 88 1007 周辺でしゅう雨
26 13:00 北東 3 10km以上 22 83 1007 周辺でしゅう雨
26 12:30 北北東 3 10km以上 23 83 1007
RJTT 280300Z 11007KT 9999 FEW020 BKN060 BKN/// 23/17 Q1007 NOSIG
RJTT 280230Z 11008KT 9999 FEW020 SCT060 BKN/// 22/16 Q1007 NOSIG
RJTT 280200Z 10007KT 9999 FEW020 SCT060 BKN/// 22/16 Q1007 NOSIG
RJTT 280130Z 09006KT 9999 FEW020 BKN050 BKN080 21/15 Q1007 NOSIG
RJTT 280100Z 09007KT 9999 FEW020 BKN050 BKN070 21/15 Q1007 NOSIG
RJTT 280030Z 09008KT 9999 FEW020 BKN050 BKN070 21/16 Q1007 NOSIG
RJTT 280000Z 09008KT 9999 FEW020 BKN050 BKN070 20/16 Q1007 NOSIG
RJTT 272330Z 08009KT 9999 FEW030 BKN070 BKN/// 20/15 Q1007 NOSIG
RJTT 272300Z 08009KT 9999 FEW020 BKN080 BKN/// 20/15 Q1007 NOSIG
RJTT 272230Z 08010KT 9999 FEW020 BKN070 20/15 Q1007 NOSIG
RJTT 272200Z 05010KT 9999 FEW020 SCT070 BKN/// 20/16 Q1007 BECMG 08008KT
RJTT 272130Z 06010KT 9999 FEW020 SCT070 BKN/// 20/16 Q1006 BECMG 08008KT
RJTT 272100Z 08009KT 9999 FEW020 SCT070 BKN/// 20/17 Q1006 NOSIG
RJTT 272030Z 08011KT 9999 FEW020 SCT070 BKN/// 20/16 Q1006 NOSIG
RJTT 272000Z 07009KT 9999 FEW050 BKN/// 20/17 Q1006 BECMG 04008KT
RJTT 271930Z 05008KT 9999 FEW030 BKN/// 20/16 Q1006 NOSIG
RJTT 271900Z 06009KT 9999 BKN050 BKN/// 20/16 Q1005 NOSIG
RJTT 271830Z 04008KT 9999 BKN050 BKN/// 20/16 Q1005 NOSIG
RJTT 271800Z 03007KT 9999 BKN050 BKN/// 20/16 Q1005 NOSIG
RJTT 271730Z 01009KT 9999 BKN050 BKN/// 20/16 Q1005 NOSIG
RJTT 271700Z 02009KT 9999 BKN050 BKN/// 20/16 Q1004 NOSIG
RJTT 271630Z 01009KT 9999 FEW040 BKN050 BKN/// 20/16 Q1004 NOSIG
RJTT 271600Z 02010KT 9999 FEW037 BKN040 BKN/// 21/16 Q1004 NOSIG
RJTT 271530Z 01011KT 9999 SCT038 BKN/// 21/17 Q1004 NOSIG
RJTT 271500Z 02013KT 9999 FEW033 BKN/// 21/18 Q1004 NOSIG
RJTT 271430Z 01009KT 9999 FEW033 BKN/// 21/18 Q1004 NOSIG
RJTT 271400Z 02010KT CAVOK 21/18 Q1004 NOSIG
RJTT 271330Z 03010KT 9999 FEW050 BKN/// 21/19 Q1003 NOSIG
RJTT 271300Z 06010KT CAVOK 22/19 Q1003 BECMG 04012KT
RJTT 271230Z 08010KT 9999 FEW045 BKN/// 22/19 Q1003 BECMG 04012KT
RJTT 271200Z 06003KT 020V140 9999 FEW042 BKN/// 22/20 Q1003 BECMG TL1230 02012KT
RJTT 271130Z 19007KT 9999 FEW025CB BKN/// 22/18 Q1002 BECMG 30008KT
RJTT 271100Z 18008KT 9999 FEW025CB BKN/// 22/18 Q1001 BECMG 30008KT
RJTT 271030Z 19010KT CAVOK 23/18 Q1001 BECMG 30008KT
RJTT 271000Z 18009KT CAVOK 22/18 Q1001 NOSIG
RJTT 270930Z 18010KT 9999 FEW025 BKN/// 23/18 Q1001 NOSIG
RJTT 270900Z 14009KT 9999 FEW025 BKN/// 23/18 Q1000 NOSIG
RJTT 270830Z 14008KT 9999 FEW025 BKN/// 23/20 Q1000 NOSIG
RJTT 270800Z 12008KT 9999 FEW025 BKN/// 24/19 Q1000 NOSIG
RJTT 270730Z 12008KT 9999 FEW025 BKN/// 24/19 Q1000 NOSIG
RJTT 270700Z 14007KT 120V180 9999 FEW025 24/19 Q1000 NOSIG
RJTT 270630Z 12006KT 090V160 9999 FEW025 SCT/// 24/18 Q1000 BECMG 18010KT
RJTT 270600Z 11005KT 070V140 9999 FEW025 BKN/// 24/19 Q1001 BECMG 18010KT
RJTT 270530Z 07004KT 9999 FEW025 BKN/// 24/19 Q1001 BECMG 16010KT
RJTT 270500Z 06005KT 9999 FEW025 BKN/// 24/19 Q1001 BECMG 12006KT
RJTT 270430Z 06005KT 9999 FEW025 BKN/// 23/19 Q1002 BECMG 12008KT
RJTT 270400Z 07007KT 9999 FEW025 BKN/// 23/19 Q1002 NOSIG
RJTT 270330Z 05007KT 9999 FEW025 BKN/// 23/19 Q1002 BECMG 09008KT
RJTT 270300Z 07007KT 9999 FEW025 BKN/// 22/19 Q1002 NOSIG
RJTT 270230Z 09008KT 9999 FEW020 BKN/// 22/19 Q1003 NOSIG
RJTT 270200Z 09007KT 9999 FEW015 SCT040 BKN/// 22/19 Q1003 NOSIG
RJTT 270130Z 07006KT 9999 FEW015 SCT040 BKN/// 21/18 Q1003 NOSIG
RJTT 270100Z 05006KT 9999 FEW015 SCT040 BKN/// 21/18 Q1004 BECMG 08005KT
RJTT 270030Z 03007KT 9999 FEW015 BKN/// 21/18 Q1004 BECMG 08005KT
RJTT 270000Z 03007KT 9999 FEW010 SCT020 BKN040 21/17 Q1004 BECMG 08005KT
RJTT 262330Z 02008KT 9999 FEW008 BKN010 BKN014 20/18 Q1004 BECMG FEW010 BKN020
RJTT 262300Z 01009KT 9999 FEW008 BKN010 BKN012 20/18 Q1004 BECMG FEW010 BKN020
RJTT 262230Z 35008KT 8000 FEW005 SCT008 BKN010 20/19 Q1004 BECMG FEW010 BKN020
RJTT 262200Z 35009KT 8000 FEW005 BKN007 BKN010 20/19 Q1004 BECMG FEW010 BKN020
RJTT 262130Z 34006KT 7000 FEW009 BKN011 BKN015 20/18 Q1004 NOSIG
RJTT 262100Z 32005KT 9999 FEW007 BKN011 BKN020 20/18 Q1003 BECMG FEW010 BKN020
RJTT 262030Z 30005KT 9000 FEW006 BKN011 BKN020 20/19 Q1003 BECMG FEW010 BKN020
RJTT 262000Z 33004KT 280V360 8000 FEW006 BKN009 BKN020 20/19 Q1003 BECMG FEW005 BKN012
RJTT 261930Z 02003KT 6000 FEW006 BKN009 BKN020 20/18 Q1003 TEMPO 4000 BR BECMG FEW005 BKN012
RJTT 261900Z 01004KT 6000 FEW006 BKN011 BKN045 20/19 Q1003 TEMPO 4000 BR
RJTT 261830Z 01004KT 5000 BR FEW005 BKN009 BKN020 20/19 Q1003 TEMPO 4000 BR BECMG FEW005 BKN012
RJTT 261800Z 01004KT 5000 BR FEW005 BKN009 BKN020 20/19 Q1003 TEMPO 4000 BR
RJTT 261730Z 01003KT 4500 BR FEW006 SCT009 BKN014 20/19 Q1003 NOSIG
RJTT 261700Z 00000KT 4500 BR FEW006 BKN014 BKN020 20/20 Q1004 BECMG 34005KT
RJTT 261630Z 12002KT 4500 BR FEW010 BKN020 BKN080 20/20 Q1004 BECMG 34005KT
RJTT 261600Z 13003KT 6000 FEW009 SCT015 BKN020 20/20 Q1004 BECMG 34005KT TEMPO 4000 BR
RJTT 261530Z 11002KT 6000 -SHRA FEW009 SCT015 BKN020 20/20 Q1005 BECMG 34005KT TEMPO 4000 BR
RJTT 261500Z 36003KT 6000 FEW009 BKN020 BKN090 20/20 Q1005 TEMPO 4000 BR
RJTT 261430Z 09001KT 7000 FEW007 BKN025 BKN090 21/20 Q1005 NOSIG
RJTT 261400Z VRB01KT 9000 FEW007 SCT010 BKN035 20/20 Q1006 BECMG 18006KT
RJTT 261330Z 16004KT 9999 -SHRA FEW007 BKN012 BKN100 21/20 Q1006 BECMG FEW010 BKN020
RJTT 261300Z 17004KT 9999 -SHRA FEW008 BKN013 BKN100 21/20 Q1006 BECMG FEW010 BKN020
RJTT 261230Z 19005KT 9999 -SHRA FEW012 BKN014 BKN100 21/20 Q1007 BECMG FEW010 BKN020
RJTT 261200Z 18007KT 9999 -SHRA FEW015 BKN100 21/19 Q1007 NOSIG
RJTT 261130Z 18006KT 9999 -SHRA FEW015 BKN100 21/19 Q1006 NOSIG
RJTT 261100Z 19007KT 9999 -SHRA FEW020 BKN110 21/19 Q1006 NOSIG
RJTT 261030Z 19009KT 160V230 9999 -SHRA FEW020 BKN100 21/19 Q1006 NOSIG
RJTT 261000Z 19007KT 9999 -SHRA FEW020 BKN100 21/20 Q1006 NOSIG
RJTT 260930Z 19007KT 9999 -RA FEW018 BKN040 BKN130 21/20 Q1006 NOSIG
RJTT 260900Z 17005KT 130V200 9999 -RA FEW018 SCT050 BKN100 21/20 Q1006 NOSIG
RJTT 260830Z VRB03KT 9999 -RA FEW020 BKN100 21/20 Q1006 BECMG 18008KT
RJTT 260800Z 19005KT 9999 -RA FEW020 BKN080 OVC110 21/19 Q1006 NOSIG
RJTT 260730Z 13004KT 9999 -RA FEW015 BKN090 21/20 Q1006 NOSIG
RJTT 260700Z 10006KT 9999 -RA FEW015 OVC090 21/20 Q1006 NOSIG
RJTT 260630Z 10006KT 9999 -RA FEW015 OVC090 21/20 Q1006 BECMG 17010KT
RJTT 260600Z 10007KT 9999 -RA FEW015 SCT040 OVC090 21/20 Q1007 BECMG 17010KT
RJTT 260530Z 09006KT 9999 -RA FEW015 SCT040 OVC090 22/20 Q1007 BECMG 16010KT
RJTT 260500Z 09008KT 9999 FEW015 SCT030 BKN110 22/20 Q1007 BECMG 16010KT
RJTT 260430Z 08009KT 9999 VCSH FEW015 SCT030 BKN110 22/20 Q1007 BECMG 16010KT
RJTT 260400Z 05005KT 9999 VCSH FEW015 SCT035 BKN110 22/19 Q1007 BECMG 08008KT
RJTT 260330Z 03005KT 9999 FEW015 SCT035 BKN150 23/20 Q1007 BECMG 08005KT